createdAt,value
2022-12-15T00:00:33.842Z,99524.38
2022-12-15T00:03:26.552Z,99523.44
2022-12-15T00:06:12.439Z,99308.25
2022-12-15T00:08:59.615Z,99519.00
2022-12-15T00:11:45.261Z,99444.09
2022-12-15T00:14:31.154Z,99531.09
2022-12-15T00:17:17.052Z,99524.97
2022-12-15T00:20:04.068Z,99530.78
2022-12-15T00:22:50.175Z,99527.97
2022-12-15T00:25:35.981Z,99536.56
2022-12-15T00:28:22.099Z,99536.44
2022-12-15T00:31:08.164Z,99531.19
2022-12-15T00:33:54.174Z,99535.44
2022-12-15T00:36:41.586Z,99531.06
2022-12-15T00:39:09.943Z,99537.03
2022-12-15T00:41:38.226Z,99536.25
2022-12-15T00:44:06.783Z,99544.06
2022-12-15T00:47:01.196Z,99543.16
2022-12-15T00:49:50.615Z,99549.03
2022-12-15T00:52:37.978Z,99554.06
2022-12-15T00:55:24.848Z,99557.47
2022-12-15T00:58:12.657Z,99525.06
2022-12-15T01:00:58.238Z,99557.97
2022-12-15T01:03:44.876Z,99563.75
2022-12-15T01:06:34.666Z,99576.47
2022-12-15T01:09:24.546Z,99567.63
2022-12-15T01:12:11.072Z,99536.00
2022-12-15T01:14:57.703Z,99462.53
2022-12-15T01:17:43.707Z,99576.44
2022-12-15T01:20:18.237Z,99596.94
2022-12-15T01:22:47.642Z,99515.72
2022-12-15T01:25:20.858Z,99549.66
2022-12-15T01:27:50.667Z,99584.56
2022-12-15T01:30:24.597Z,99604.47
2022-12-15T01:32:53.703Z,99575.56
2022-12-15T01:35:23.289Z,99601.44
2022-12-15T01:37:51.729Z,99500.13
2022-12-15T01:40:41.152Z,99608.81
2022-12-15T01:43:14.744Z,99608.72
2022-12-15T01:46:02.089Z,99608.56
2022-12-15T01:48:47.562Z,99600.94
2022-12-15T01:51:24.957Z,99538.19
2022-12-15T01:54:03.591Z,99601.69
2022-12-15T01:56:38.315Z,99567.44
2022-12-15T01:59:10.627Z,99572.34
2022-12-15T02:01:39.743Z,99612.81
2022-12-15T02:04:12.461Z,99612.63
2022-12-15T02:06:40.827Z,99578.44
2022-12-15T02:09:10.015Z,99612.41
2022-12-15T02:11:58.820Z,99573.03
2022-12-15T02:14:46.728Z,99612.50
2022-12-15T02:17:31.858Z,99570.78
2022-12-15T02:20:41.814Z,99624.31
2022-12-15T02:23:58.713Z,99609.72
2022-12-15T02:27:25.378Z,99619.63
2022-12-15T02:30:47.070Z,99634.63
2022-12-15T02:33:27.774Z,99639.78
2022-12-15T02:36:03.353Z,99636.88
2022-12-15T02:38:36.439Z,99639.47
2022-12-15T02:41:07.512Z,99598.25
2022-12-15T02:43:39.949Z,99651.25
2022-12-15T02:46:23.026Z,99548.66
2022-12-15T02:49:06.502Z,99647.56
2022-12-15T02:51:54.892Z,99582.94
2022-12-15T02:54:51.178Z,99573.38
2022-12-15T02:57:29.497Z,99657.50
2022-12-15T03:00:02.124Z,99654.16
2022-12-15T03:02:35.564Z,99661.84
2022-12-15T03:05:06.895Z,99494.63
2022-12-15T03:07:35.390Z,99643.81
2022-12-15T03:10:07.303Z,99512.63
2022-12-15T03:12:35.709Z,99683.72
2022-12-15T03:15:04.372Z,99537.91
2022-12-15T03:17:33.037Z,99698.41
2022-12-15T03:20:01.751Z,99694.91
2022-12-15T03:22:31.736Z,99705.19
2022-12-15T03:25:00.036Z,99540.31
2022-12-15T03:27:28.676Z,99697.75
2022-12-15T03:29:57.565Z,99694.47
2022-12-15T03:32:25.825Z,99695.53
2022-12-15T03:34:54.169Z,99700.03
2022-12-15T03:37:22.416Z,99654.44
2022-12-15T03:39:52.102Z,99697.25
2022-12-15T03:42:40.393Z,99706.75
2022-12-15T03:45:09.986Z,99678.97
2022-12-15T03:47:43.096Z,99640.53
2022-12-15T03:50:13.739Z,99667.66
2022-12-15T03:52:42.080Z,99704.53
2022-12-15T03:55:13.092Z,99707.09
2022-12-15T03:57:42.197Z,99706.78
2022-12-15T04:00:15.049Z,99723.13
2022-12-15T04:02:43.860Z,99723.03
2022-12-15T04:05:18.204Z,99734.31
2022-12-15T04:07:46.581Z,99740.22
2022-12-15T04:10:16.483Z,99757.91
2022-12-15T04:12:45.155Z,99756.34
2022-12-15T04:15:14.008Z,99768.63
2022-12-15T04:17:43.052Z,99763.59
2022-12-15T04:20:11.816Z,99764.53
2022-12-15T04:22:43.514Z,99774.84
2022-12-15T04:25:33.845Z,99779.38
2022-12-15T04:28:19.902Z,99781.28
2022-12-15T04:31:12.992Z,99792.75
2022-12-15T04:34:03.473Z,99789.63
2022-12-15T04:36:50.385Z,99798.41
2022-12-15T04:39:36.350Z,99749.44
2022-12-15T04:42:24.083Z,99809.59
2022-12-15T04:45:18.632Z,99770.44
2022-12-15T04:48:06.910Z,99774.16
2022-12-15T04:50:53.022Z,99807.50
2022-12-15T04:53:40.432Z,99811.09
2022-12-15T04:56:30.098Z,99760.38
2022-12-15T04:59:18.213Z,99795.47
2022-12-15T05:02:04.801Z,99829.69
2022-12-15T05:04:50.874Z,99835.56
2022-12-15T05:07:36.893Z,99817.03
2022-12-15T05:10:24.961Z,99788.50
2022-12-15T05:13:10.722Z,99828.03
2022-12-15T05:15:57.754Z,99828.97
2022-12-15T05:18:43.893Z,99814.03
2022-12-15T05:21:29.851Z,99837.84
2022-12-15T05:24:15.679Z,99839.69
2022-12-15T05:27:01.485Z,99842.53
2022-12-15T05:29:47.332Z,99842.66
2022-12-15T05:32:17.284Z,99812.94
2022-12-15T05:34:45.850Z,99855.94
2022-12-15T05:37:14.179Z,99854.16
2022-12-15T05:39:43.211Z,99849.81
2022-12-15T05:42:13.936Z,99854.22
2022-12-15T05:44:43.310Z,99850.94
2022-12-15T05:47:13.067Z,99851.81
2022-12-15T05:49:42.825Z,99865.72
2022-12-15T05:52:11.145Z,99860.59
2022-12-15T05:54:39.471Z,99871.84
2022-12-15T05:57:07.950Z,99796.72
2022-12-15T05:59:36.310Z,99843.22
2022-12-15T06:02:05.182Z,99830.00
2022-12-15T06:04:33.636Z,99887.69
2022-12-15T06:07:03.542Z,99855.66
2022-12-15T06:09:31.926Z,99884.50
2022-12-15T06:12:00.576Z,99883.81
2022-12-15T06:14:29.113Z,99836.69
2022-12-15T06:16:57.402Z,99766.47
2022-12-15T06:19:25.826Z,99815.81
2022-12-15T06:21:54.275Z,99884.13
2022-12-15T06:24:24.727Z,99884.13
2022-12-15T06:26:53.488Z,99864.84
2022-12-15T06:29:22.192Z,99900.44
2022-12-15T06:31:50.545Z,99907.19
2022-12-15T06:34:53.945Z,99913.13
2022-12-15T06:37:22.622Z,99919.03
2022-12-15T06:39:52.245Z,99828.84
2022-12-15T06:42:21.871Z,99940.59
2022-12-15T06:44:50.163Z,99945.75
2022-12-15T06:47:19.229Z,99719.13
2022-12-15T06:49:50.130Z,99825.56
2022-12-15T06:52:18.419Z,99964.44
2022-12-15T06:54:46.700Z,99937.47
2022-12-15T06:57:16.948Z,99922.63
2022-12-15T06:59:45.516Z,99954.28
2022-12-15T07:02:21.110Z,99962.97
2022-12-15T07:04:52.311Z,99967.94
2022-12-15T07:07:20.953Z,99968.50
2022-12-15T07:09:49.760Z,99969.50
2022-12-15T07:12:20.839Z,99834.78
2022-12-15T07:14:53.380Z,99845.06
2022-12-15T07:17:22.123Z,99972.88
2022-12-15T07:19:50.439Z,99968.38
2022-12-15T07:22:20.718Z,99990.94
2022-12-15T07:24:49.090Z,99982.25
2022-12-15T07:27:18.165Z,99995.50
2022-12-15T07:29:47.846Z,100000.22
2022-12-15T07:32:16.881Z,99986.13
2022-12-15T07:34:46.191Z,100001.22
2022-12-15T07:37:17.321Z,100001.44
2022-12-15T07:39:46.284Z,100000.50
2022-12-15T07:42:14.687Z,99920.47
2022-12-15T07:44:42.992Z,100013.22
2022-12-15T07:47:12.715Z,100020.19
2022-12-15T07:49:41.269Z,99908.22
2022-12-15T07:52:09.950Z,100017.75
2022-12-15T07:54:38.334Z,100011.56
2022-12-15T07:57:07.672Z,100012.56
2022-12-15T07:59:36.353Z,100009.28
2022-12-15T08:02:05.751Z,100020.97
2022-12-15T08:04:35.768Z,99994.47
2022-12-15T08:07:04.350Z,100025.09
2022-12-15T08:09:32.801Z,100027.63
2022-12-15T08:12:02.815Z,100019.00
2022-12-15T08:14:32.319Z,100017.34
2022-12-15T08:17:01.132Z,100034.63
2022-12-15T08:19:30.747Z,100039.63
2022-12-15T08:22:00.485Z,99995.97
2022-12-15T08:24:28.845Z,100016.53
2022-12-15T08:26:57.567Z,100039.50
2022-12-15T08:29:50.666Z,100048.09
2022-12-15T08:32:14.664Z,100044.63
2022-12-15T08:34:43.644Z,100050.78
2022-12-15T08:37:13.433Z,99863.50
2022-12-15T08:39:42.555Z,100056.00
2022-12-15T08:42:11.157Z,100062.63
2022-12-15T08:44:39.876Z,100065.88
2022-12-15T08:47:08.890Z,100076.34
2022-12-15T08:49:37.552Z,100076.69
2022-12-15T08:52:06.167Z,100076.09
2022-12-15T08:54:36.193Z,100079.19
2022-12-15T08:57:04.759Z,100088.88
2022-12-15T08:59:33.079Z,100091.38
2022-12-15T09:02:02.091Z,100081.59
2022-12-15T09:04:30.690Z,100089.47
2022-12-15T09:07:00.714Z,100097.31
2022-12-15T09:09:29.350Z,100094.06
2022-12-15T09:11:59.055Z,100102.59
2022-12-15T09:14:29.593Z,100105.75
2022-12-15T09:16:58.567Z,100101.06
2022-12-15T09:19:27.891Z,100105.91
2022-12-15T09:21:56.500Z,100111.41
2022-12-15T09:24:34.369Z,100102.38
2022-12-15T09:27:04.866Z,99986.72
2022-12-15T09:29:33.830Z,99999.78
2022-12-15T09:32:02.173Z,100013.56
2022-12-15T09:34:30.775Z,100106.25
2022-12-15T09:36:59.107Z,100103.59
2022-12-15T09:39:27.661Z,100097.59
2022-12-15T09:42:01.392Z,100090.63
2022-12-15T09:44:35.758Z,100096.50
2022-12-15T09:47:19.664Z,100089.56
2022-12-15T09:49:56.557Z,100063.31
2022-12-15T09:52:30.115Z,100007.00
2022-12-15T09:54:59.701Z,100096.44
2022-12-15T09:57:38.557Z,99901.16
2022-12-15T10:00:22.457Z,100088.63
2022-12-15T10:03:34.264Z,100096.03
2022-12-15T10:06:20.208Z,100104.72
2022-12-15T10:08:57.226Z,100101.31
2022-12-15T10:11:50.618Z,100082.00
2022-12-15T10:14:32.072Z,100100.56
2022-12-15T10:17:15.210Z,100008.28
2022-12-15T10:19:50.885Z,100112.53
2022-12-15T10:22:25.262Z,100116.09
2022-12-15T10:25:11.440Z,100115.41
2022-12-15T10:28:17.218Z,100117.25
2022-12-15T10:30:59.416Z,100125.13
2022-12-15T10:33:36.573Z,100125.25
2022-12-15T10:36:11.166Z,100122.84
2022-12-15T10:38:45.367Z,100131.38
2022-12-15T10:41:17.529Z,100126.28
2022-12-15T10:43:48.307Z,100069.34
2022-12-15T10:46:23.006Z,100130.78
2022-12-15T10:48:57.445Z,100129.91
2022-12-15T10:51:31.732Z,100114.97
2022-12-15T10:54:14.478Z,100121.06
2022-12-15T10:56:51.804Z,100149.09
2022-12-15T10:59:26.863Z,99975.81
2022-12-15T11:01:56.008Z,100138.91
2022-12-15T11:04:31.757Z,100136.31
2022-12-15T11:07:02.140Z,100090.78
2022-12-15T11:09:35.915Z,100125.81
2022-12-15T11:12:36.725Z,100056.72
2022-12-15T11:15:44.281Z,100152.88
2022-12-15T11:18:32.572Z,100156.47
2022-12-15T11:21:08.897Z,100166.22
2022-12-15T11:24:04.717Z,100163.63
2022-12-15T11:26:48.906Z,100086.44
2022-12-15T11:29:34.824Z,100164.69
2022-12-15T11:32:07.711Z,100156.00
2022-12-15T11:34:40.687Z,100162.88
2022-12-15T11:37:49.257Z,100162.09
2022-12-15T11:40:40.705Z,100127.19
2022-12-15T11:43:37.376Z,100165.72
2022-12-15T11:46:26.548Z,100165.88
2022-12-15T11:49:44.829Z,100053.97
2022-12-15T11:52:45.103Z,100146.75
2022-12-15T11:55:32.125Z,100109.22
2022-12-15T11:58:41.360Z,100144.38
2022-12-15T12:01:30.510Z,100163.56
2022-12-15T12:04:13.512Z,100170.56
2022-12-15T12:06:57.480Z,100163.69
2022-12-15T12:09:34.012Z,100107.88
2022-12-15T12:12:22.132Z,100156.94
2022-12-15T12:15:16.568Z,100148.31
2022-12-15T12:17:51.948Z,100154.41
2022-12-15T12:20:26.096Z,100049.44
2022-12-15T12:23:05.777Z,100150.97
2022-12-15T12:25:49.342Z,100148.41
2022-12-15T12:28:29.257Z,100084.47
2022-12-15T12:31:02.062Z,100081.09
2022-12-15T12:33:41.630Z,100151.16
2022-12-15T12:36:13.866Z,100124.84
2022-12-15T12:38:50.458Z,100111.03
2022-12-15T12:41:35.707Z,100137.25
2022-12-15T12:44:20.066Z,100154.81
2022-12-15T12:46:53.754Z,100127.63
2022-12-15T12:49:33.148Z,100079.53
2022-12-15T12:52:05.427Z,100164.59
2022-12-15T12:54:47.832Z,100164.66
2022-12-15T12:57:52.982Z,100091.06
2022-12-15T13:00:25.417Z,100085.91
2022-12-15T13:03:21.014Z,100157.78
2022-12-15T13:05:54.435Z,100167.19
2022-12-15T13:08:55.846Z,100158.56
2022-12-15T13:12:15.069Z,100129.75
2022-12-15T13:14:54.569Z,100092.19
2022-12-15T13:17:40.287Z,100128.97
2022-12-15T13:20:24.666Z,100117.78
2022-12-15T13:22:55.093Z,100144.78
2022-12-15T13:25:51.807Z,100090.59
2022-12-15T13:28:45.537Z,100097.31
2022-12-15T13:31:47.763Z,100135.13
2022-12-15T13:34:29.044Z,99983.34
2022-12-15T13:37:02.401Z,100128.75
2022-12-15T13:40:00.910Z,100105.91
2022-12-15T13:42:45.282Z,100129.44
2022-12-15T13:45:48.897Z,100085.53
2022-12-15T13:48:38.320Z,100133.69
2022-12-15T13:51:24.060Z,100135.28
2022-12-15T13:53:59.532Z,100143.00
2022-12-15T13:56:55.938Z,100133.41
2022-12-15T13:59:49.434Z,100128.25
2022-12-15T14:02:27.655Z,100134.25
2022-12-15T14:05:15.260Z,100075.44
2022-12-15T14:07:54.163Z,100091.94
2022-12-15T14:10:28.679Z,100138.22
2022-12-15T14:13:14.973Z,100076.88
2022-12-15T14:15:50.914Z,100150.28
2022-12-15T14:18:31.106Z,100153.63
2022-12-15T14:21:05.861Z,100155.09
2022-12-15T14:23:58.046Z,100148.94
2022-12-15T14:26:32.036Z,100148.78
2022-12-15T14:29:04.242Z,100153.91
2022-12-15T14:31:33.615Z,100150.28
2022-12-15T14:34:12.330Z,100147.53
2022-12-15T14:36:44.295Z,100123.59
2022-12-15T14:39:23.834Z,100080.34
2022-12-15T14:41:55.153Z,100153.13
2022-12-15T14:44:38.235Z,100160.69
2022-12-15T14:47:20.322Z,100025.41
2022-12-15T14:49:49.564Z,100167.22
2022-12-15T14:52:30.718Z,100157.53
2022-12-15T14:55:01.873Z,100156.53
2022-12-15T14:57:43.880Z,100159.81
2022-12-15T15:00:28.796Z,100151.81
2022-12-15T15:06:02.378Z,100161.28
2022-12-15T15:08:36.169Z,100171.41
2022-12-15T15:11:24.291Z,100173.03
2022-12-15T15:13:57.667Z,100171.16
2022-12-15T15:16:26.922Z,100180.50
2022-12-15T15:18:57.802Z,100036.63
2022-12-15T15:21:31.400Z,100184.75
2022-12-15T15:24:03.865Z,100169.97
2022-12-15T15:26:33.016Z,100097.50
2022-12-15T15:29:01.755Z,100104.72
2022-12-15T15:31:41.448Z,100060.19
2022-12-15T15:34:11.556Z,100177.53
2022-12-15T15:36:41.336Z,100167.84
2022-12-15T15:39:17.219Z,100105.47
2022-12-15T15:41:46.078Z,100169.59
2022-12-15T15:44:17.217Z,100167.72
2022-12-15T15:46:50.643Z,100122.28
2022-12-15T15:49:23.565Z,100165.25
2022-12-15T15:51:52.415Z,100163.38
2022-12-15T15:54:29.758Z,100169.41
2022-12-15T15:57:02.341Z,100160.69
2022-12-15T15:59:31.122Z,100168.34
2022-12-15T16:02:00.493Z,100165.56
2022-12-15T16:04:29.011Z,100095.19
2022-12-15T16:06:57.326Z,100165.25
2022-12-15T16:09:27.102Z,100167.81
2022-12-15T16:11:55.879Z,100166.81
2022-12-15T16:14:24.489Z,100176.25
2022-12-15T16:16:54.704Z,100170.16
2022-12-15T16:19:23.977Z,100137.53
2022-12-15T16:21:53.229Z,100170.97
2022-12-15T16:24:21.883Z,100129.53
2022-12-15T16:26:52.461Z,100153.13
2022-12-15T16:29:22.502Z,100172.53
2022-12-15T16:31:50.852Z,100183.03
2022-12-15T16:34:21.802Z,100182.22
2022-12-15T16:36:50.981Z,100187.22
2022-12-15T16:39:27.838Z,100188.81
2022-12-15T16:41:58.725Z,100194.78
2022-12-15T16:44:30.549Z,100196.53
2022-12-15T16:46:59.868Z,100206.03
2022-12-15T16:49:33.878Z,100204.22
2022-12-15T16:52:06.679Z,100204.94
2022-12-15T16:54:35.132Z,100210.84
2022-12-15T16:57:06.026Z,100208.94
2022-12-15T16:59:35.684Z,100221.78
2022-12-15T17:02:28.465Z,100221.72
2022-12-15T17:04:57.473Z,100210.47
2022-12-15T17:07:29.397Z,100207.81
2022-12-15T17:09:58.294Z,100209.50
2022-12-15T17:12:28.105Z,100212.88
2022-12-15T17:14:57.582Z,100211.00
2022-12-15T17:17:28.295Z,100213.47
2022-12-15T17:22:48.564Z,100215.88
2022-12-15T17:25:37.422Z,100217.47
2022-12-15T17:28:18.787Z,100123.25
2022-12-15T17:30:47.856Z,100224.13
2022-12-15T17:33:20.158Z,100234.63
2022-12-15T17:35:51.422Z,100237.94
2022-12-15T17:38:22.574Z,100238.72
2022-12-15T17:40:52.449Z,100209.72
2022-12-15T17:43:24.188Z,100235.19
2022-12-15T17:45:55.625Z,100202.75
2022-12-15T17:48:24.981Z,100235.19
2022-12-15T17:50:55.067Z,100161.34
2022-12-15T17:53:25.567Z,100207.75
2022-12-15T17:55:55.213Z,100231.44
2022-12-15T17:58:29.368Z,100207.53
2022-12-15T18:00:59.169Z,100223.41
2022-12-15T18:03:28.041Z,100156.88
2022-12-15T18:05:56.504Z,100229.59
2022-12-15T18:08:28.061Z,100234.53
2022-12-15T18:10:59.771Z,100231.59
2022-12-15T18:13:35.423Z,100228.97
2022-12-15T18:16:04.796Z,100224.69
2022-12-15T18:18:35.407Z,100229.91
2022-12-15T18:21:14.628Z,100209.81
2022-12-15T18:23:43.501Z,100221.22
2022-12-15T18:26:14.073Z,100220.44
2022-12-15T18:28:44.746Z,100220.44
2022-12-15T18:31:23.048Z,100236.81
2022-12-15T18:33:51.367Z,100233.16
2022-12-15T18:36:20.620Z,100106.59
2022-12-15T18:38:49.932Z,100124.97
2022-12-15T18:41:21.269Z,100183.34
2022-12-15T18:43:52.044Z,100232.63
2022-12-15T18:46:20.734Z,100191.31
2022-12-15T18:48:49.243Z,100224.91
2022-12-15T18:51:23.292Z,100050.91
2022-12-15T18:53:52.410Z,100224.78
2022-12-15T18:56:21.682Z,100229.78
2022-12-15T18:58:51.933Z,100219.38
2022-12-15T19:01:20.770Z,100180.59
2022-12-15T19:03:50.727Z,100221.81
2022-12-15T19:06:34.897Z,100223.38
2022-12-15T19:09:04.856Z,100135.44
2022-12-15T19:11:34.652Z,100170.16
2022-12-15T19:14:29.163Z,100196.41
2022-12-15T19:17:16.028Z,100105.88
2022-12-15T19:20:02.122Z,100225.41
2022-12-15T19:22:31.309Z,100234.16
2022-12-15T19:25:00.505Z,100240.09
2022-12-15T19:27:29.030Z,100246.13
2022-12-15T19:29:59.047Z,100216.28
2022-12-15T19:32:27.767Z,100244.31
2022-12-15T19:34:58.508Z,100251.06
2022-12-15T19:37:31.898Z,100257.84
2022-12-15T19:40:03.220Z,100243.91
2022-12-15T19:42:36.955Z,100246.50
2022-12-15T19:45:17.841Z,100252.44
2022-12-15T19:47:46.827Z,100226.09
2022-12-15T19:50:17.432Z,100243.59
2022-12-15T19:52:52.609Z,100231.16
2022-12-15T19:55:29.043Z,100242.72
2022-12-15T19:57:58.524Z,100246.31
2022-12-15T20:00:29.065Z,100249.63
2022-12-15T20:02:57.831Z,100246.84
2022-12-15T20:05:26.729Z,100246.72
2022-12-15T20:07:58.391Z,100236.31
2022-12-15T20:10:32.198Z,100204.53
2022-12-15T20:13:03.295Z,100234.75
2022-12-15T20:15:34.908Z,100198.63
2022-12-15T20:18:03.571Z,100242.66
2022-12-15T20:20:32.532Z,100248.00
2022-12-15T20:23:08.613Z,100244.28
2022-12-15T20:25:38.447Z,100105.97
2022-12-15T20:28:14.663Z,100243.63
2022-12-15T20:30:46.010Z,100244.44
2022-12-15T20:33:15.127Z,100192.16
2022-12-15T20:35:46.151Z,100230.03
2022-12-15T20:38:22.505Z,100224.34
2022-12-15T20:40:51.572Z,100219.94
2022-12-15T20:43:22.457Z,100227.13
2022-12-15T20:46:04.177Z,100197.91
2022-12-15T20:48:36.572Z,100210.50
2022-12-15T20:51:09.840Z,100214.72
2022-12-15T20:53:39.317Z,100214.47
2022-12-15T20:56:09.648Z,100134.25
2022-12-15T20:58:41.301Z,100221.53
2022-12-15T21:01:20.500Z,100129.97
2022-12-15T21:03:51.954Z,100215.84
2022-12-15T21:06:20.876Z,100207.47
2022-12-15T21:08:49.389Z,100228.25
2022-12-15T21:11:21.832Z,100227.28
2022-12-15T21:13:52.351Z,100217.28
2022-12-15T21:16:26.086Z,100090.88
2022-12-15T21:21:49.302Z,100209.44
2022-12-15T21:24:25.193Z,100188.97
2022-12-15T21:26:55.005Z,100196.28
2022-12-15T21:29:26.403Z,100110.13
2022-12-15T21:31:56.262Z,100189.06
2022-12-15T21:34:24.916Z,100191.44
2022-12-15T21:36:55.529Z,100186.50
2022-12-15T21:39:29.806Z,100192.34
2022-12-15T21:42:01.025Z,100188.94
2022-12-15T21:44:29.479Z,100140.97
2022-12-15T21:46:59.229Z,100185.41
2022-12-15T21:49:27.454Z,100182.84
2022-12-15T21:51:59.885Z,100185.31
2022-12-15T21:54:32.440Z,100119.88
2022-12-15T21:57:02.690Z,100166.72
2022-12-15T21:59:33.819Z,100195.09
2022-12-15T22:02:23.899Z,100145.16
2022-12-15T22:04:52.980Z,100197.59
2022-12-15T22:07:23.569Z,100189.31
2022-12-15T22:09:51.901Z,100175.16
2022-12-15T22:12:24.671Z,100170.03
2022-12-15T22:14:53.144Z,100180.41
2022-12-15T22:17:24.486Z,100169.06
2022-12-15T22:19:53.080Z,100187.38
2022-12-15T22:22:21.684Z,100167.47
2022-12-15T22:24:49.944Z,100170.69
2022-12-15T22:27:22.502Z,100175.91
2022-12-15T22:29:51.429Z,100179.19
2022-12-15T22:32:19.676Z,100179.53
2022-12-15T22:34:49.367Z,100179.91
2022-12-15T22:37:17.623Z,100086.25
2022-12-15T22:39:45.941Z,100189.69
2022-12-15T22:42:18.006Z,100072.81
2022-12-15T22:44:47.113Z,100191.19
2022-12-15T22:47:15.419Z,100188.53
2022-12-15T22:49:44.111Z,100190.00
2022-12-15T22:52:19.261Z,100182.66
2022-12-15T22:54:48.385Z,100152.19
2022-12-15T22:57:24.131Z,100212.78
2022-12-15T23:00:00.861Z,100212.78
2022-12-15T23:02:33.736Z,100218.50
2022-12-15T23:05:02.908Z,100231.19
2022-12-15T23:07:33.995Z,100109.78
2022-12-15T23:10:19.961Z,100221.53
2022-12-15T23:12:48.608Z,100243.03
2022-12-15T23:15:34.477Z,100231.13
2022-12-15T23:18:02.767Z,100225.09
2022-12-15T23:20:31.168Z,100231.72
2022-12-15T23:23:00.878Z,100236.13
2022-12-15T23:25:29.359Z,100235.19
2022-12-15T23:27:57.793Z,100235.53
2022-12-15T23:30:26.276Z,100233.69
2022-12-15T23:32:55.352Z,100151.69
2022-12-15T23:35:24.010Z,100186.78
2022-12-15T23:37:52.342Z,100236.88
2022-12-15T23:40:22.567Z,100235.97
2022-12-15T23:42:52.192Z,100236.59
2022-12-15T23:45:21.608Z,100241.56
2022-12-15T23:47:49.885Z,100232.78
2022-12-15T23:50:19.120Z,100205.47
2022-12-15T23:52:51.971Z,100240.59
2022-12-15T23:55:24.373Z,100242.25
2022-12-15T23:57:52.710Z,100143.75
